Cnp Paita — OA2074 — position and weather

sailwx.info

Track history (hours):
 
Tides and Currents Weather Stations Pressure Air Temp Water Temp Dewpoint Dewpoint Depression Visibility Wind Speed Wind Dir Waves Ship Positions

Cnp Paita

Last reported at 2017-Nov-20 00:30 UTC. Time now 2017-Nov-23 01:46 UTC.
Position N 19°37' W 095°56'.

Length 184 m; draft 7.8 m.

Type: Cargo ship. MMSI: 760001110.

Date/timePositionNaut miles runAvg speedWind from/ knotsBaromVisibWave heightAir tempDewpointWater temp
2017-Nov-20 00:30N 19°37' W 095°56'0 0.8
2017-Nov-20 00:00N 19°37' W 095°56'0 1.0
2017-Nov-19 23:30N 19°36' W 095°56'1 1.9
2017-Nov-19 22:56N 19°35' W 095°56'1 2.5
2017-Nov-19 22:30N 19°34' W 095°56'4 3.4
2017-Nov-19 21:21N 19°30' W 095°57'2 4.4
2017-Nov-19 21:00N 19°29' W 095°58'2 3.8
2017-Nov-19 20:30N 19°27' W 095°58'2 3.9
2017-Nov-19 20:00N 19°25' W 095°58'2 4.3
2017-Nov-19 19:30N 19°23' W 095°58'2 4.8
2017-Nov-19 19:00N 19°20' W 095°59'3 5.6
2017-Nov-19 18:30N 19°18' W 095°58'3 6.2
2017-Nov-19 18:00N 19°15' W 095°58'3 6.7
2017-Nov-19 17:30N 19°12' W 096°00'4 7.0
2017-Nov-19 17:00N 19°10' W 096°03'1 2.2
2017-Nov-19 16:29N 19°09' W 096°04'0 0.0
2017-Nov-19 15:59N 19°09' W 096°04'0 0.0
2017-Nov-19 15:29N 19°09' W 096°04'0 0.0
2017-Nov-19 14:53N 19°09' W 096°04'0 0.0
2017-Nov-19 14:29N 19°09' W 096°04'0 0.0
2017-Nov-19 13:35N 19°09' W 096°04'0 0.1
2017-Nov-19 13:29N 19°09' W 096°04'0 0.0
2017-Nov-19 12:53N 19°09' W 096°04'0 0.0
2017-Nov-19 12:29N 19°09' W 096°04'0 0.0
2017-Nov-19 11:59N 19°09' W 096°04'0 0.0
2017-Nov-19 11:23N 19°09' W 096°04'0 0.1
2017-Nov-19 10:59N 19°09' W 096°04'0 0.1
2017-Nov-19 10:29N 19°09' W 096°04'0 0.0
2017-Nov-19 09:53N 19°09' W 096°04'0 0.1
2017-Nov-19 09:29N 19°09' W 096°04'0 0.0
2017-Nov-19 08:59N 19°09' W 096°04'0 0.0
2017-Nov-19 08:29N 19°09' W 096°04'0 0.0
2017-Nov-19 07:59N 19°09' W 096°04'0 0.0
2017-Nov-19 07:29N 19°09' W 096°04'0 0.0
2017-Nov-19 06:59N 19°09' W 096°04'0 0.0
2017-Nov-19 06:23N 19°09' W 096°04'0 0.0
2017-Nov-19 05:59N 19°09' W 096°04'0 0.0
2017-Nov-19 05:23N 19°09' W 096°04'0 0.0
2017-Nov-19 04:59N 19°09' W 096°04'0 0.0
2017-Nov-19 04:29N 19°09' W 096°04'0 0.0
2017-Nov-19 03:53N 19°09' W 096°04'0 0.0
2017-Nov-19 03:23N 19°09' W 096°04'0 0.0
2017-Nov-19 02:41N 19°09' W 096°04'0 0.0
2017-Nov-19 02:23N 19°09' W 096°04'0 0.0
2017-Nov-19 01:11N 19°09' W 096°04'0 0.0
2017-Nov-19 00:53N 19°09' W 096°04'0 0.0
2017-Nov-19 00:29N 19°09' W 096°04'0 0.0
2017-Nov-18 23:59N 19°09' W 096°04'0 0.0
2017-Nov-18 23:29N 19°09' W 096°04'0 0.0
2017-Nov-18 22:59N 19°09' W 096°04'0 0.0
2017-Nov-18 22:17N 19°09' W 096°04'0 0.0
2017-Nov-18 21:59N 19°09' W 096°04'0 0.0
2017-Nov-18 21:29N 19°09' W 096°04'0 0.0
2017-Nov-18 20:59N 19°09' W 096°04'0 0.0
2017-Nov-18 20:29N 19°09' W 096°04'0 0.0
2017-Nov-18 19:35N 19°09' W 096°04'0 0.1
2017-Nov-18 19:29N 19°09' W 096°04'0 0.1
2017-Nov-18 18:53N 19°09' W 096°04'0 0.0
2017-Nov-18 18:29N 19°09' W 096°04'0 0.0
2017-Nov-18 17:59N 19°09' W 096°04'0 0.0
2017-Nov-18 17:23N 19°09' W 096°04'0 0.0
2017-Nov-18 16:59N 19°09' W 096°04'0 0.0
2017-Nov-18 16:23N 19°09' W 096°04'0 0.0
2017-Nov-18 15:53N 19°09' W 096°04'0 0.0
2017-Nov-18 15:29N 19°09' W 096°04'0 0.0
2017-Nov-18 14:47N 19°09' W 096°04'0 0.0
2017-Nov-18 14:29N 19°09' W 096°04'0 0.0
2017-Nov-18 13:59N 19°09' W 096°04'0 0.0
2017-Nov-18 13:29N 19°09' W 096°04'0 0.1
2017-Nov-18 12:59N 19°09' W 096°04'0 0.1
2017-Nov-18 12:23N 19°09' W 096°04'0 0.0
2017-Nov-18 11:59N 19°09' W 096°04'0 0.0
2017-Nov-18 11:29N 19°09' W 096°04'0 0.0
2017-Nov-18 10:59N 19°09' W 096°04'0 0.0
2017-Nov-18 10:23N 19°09' W 096°04'0 0.0
2017-Nov-18 09:53N 19°09' W 096°04'0 0.2
2017-Nov-18 09:23N 19°09' W 096°04'0 0.2
2017-Nov-18 08:59N 19°09' W 096°04'0 0.0
2017-Nov-18 08:29N 19°09' W 096°04'0 0.0
2017-Nov-18 07:59N 19°09' W 096°04'0 0.0
2017-Nov-18 07:29N 19°09' W 096°04'0 0.1
2017-Nov-18 06:59N 19°09' W 096°04'0 0.0
2017-Nov-18 06:29N 19°09' W 096°04'0 0.0
2017-Nov-18 05:59N 19°09' W 096°04'0 0.0
2017-Nov-18 05:29N 19°09' W 096°04'0 0.0
2017-Nov-18 04:59N 19°09' W 096°04'0 0.0
2017-Nov-18 04:29N 19°09' W 096°04'0 0.0
2017-Nov-18 03:53N 19°09' W 096°04'0 0.0
2017-Nov-18 03:29N 19°09' W 096°04'0 0.0
2017-Nov-18 02:53N 19°09' W 096°04'0 0.0
2017-Nov-18 02:29N 19°09' W 096°04'0 0.0
2017-Nov-18 01:59N 19°09' W 096°04'0 0.0
2017-Nov-18 01:29N 19°09' W 096°04'0 0.0
2017-Nov-18 00:47N 19°09' W 096°04'0 0.0
2017-Nov-18 00:29N 19°09' W 096°04'0 0.0
2017-Nov-17 23:53N 19°09' W 096°04'0 0.0
2017-Nov-17 23:29N 19°09' W 096°04'0 0.0
2017-Nov-17 22:59N 19°09' W 096°04'0 0.0
2017-Nov-17 22:29N 19°09' W 096°04'0 0.0
2017-Nov-17 21:53N 19°09' W 096°04'0 0.1
2017-Nov-17 21:29N 19°09' W 096°04'0 0.1
2017-Nov-17 20:53N 19°09' W 096°04'0 0.0
2017-Nov-17 20:29N 19°09' W 096°04'0 0.0
2017-Nov-17 19:53N 19°09' W 096°04'0 0.0
2017-Nov-17 19:29N 19°09' W 096°04'0 0.0
2017-Nov-17 18:53N 19°09' W 096°04'0 0.0
2017-Nov-17 18:29N 19°09' W 096°04'0 0.0
2017-Nov-17 17:59N 19°09' W 096°04'0 0.0
2017-Nov-17 17:29N 19°09' W 096°04'0 0.0
2017-Nov-17 16:59N 19°09' W 096°04'0 0.0
2017-Nov-17 16:29N 19°09' W 096°04'0 0.0
2017-Nov-17 15:59N 19°09' W 096°04'0 0.0
2017-Nov-17 15:29N 19°09' W 096°04'0 0.0
2017-Nov-17 14:59N 19°09' W 096°04'0 0.0
2017-Nov-17 14:29N 19°09' W 096°04'0 0.0
2017-Nov-17 13:59N 19°09' W 096°04'0 0.1
2017-Nov-17 13:29N 19°09' W 096°04'0 0.0
2017-Nov-17 12:41N 19°09' W 096°04'0 0.0
2017-Nov-17 12:29N 19°09' W 096°04'0 0.2
2017-Nov-17 11:59N 19°09' W 096°04'0 0.0
2017-Nov-17 11:23N 19°09' W 096°04'0 0.0
2017-Nov-17 10:59N 19°09' W 096°04'0 0.0
2017-Nov-17 10:17N 19°09' W 096°04'0 0.3
2017-Nov-17 09:59N 19°09' W 096°04'0 0.0
2017-Nov-17 09:23N 19°09' W 096°04'0 0.0
2017-Nov-17 08:47N 19°09' W 096°04'0 0.1
2017-Nov-17 08:29N 19°09' W 096°04'0 0.0
2017-Nov-17 07:59N 19°09' W 096°04'0 0.0
2017-Nov-17 07:29N 19°09' W 096°04'0 0.1
2017-Nov-17 06:59N 19°09' W 096°04'0 0.0
2017-Nov-17 06:29N 19°09' W 096°04'0 0.0
2017-Nov-17 05:53N 19°09' W 096°04'0 0.0
2017-Nov-17 05:29N 19°09' W 096°04'0 0.0
2017-Nov-17 04:59N 19°09' W 096°04'0 0.0
2017-Nov-17 04:29N 19°09' W 096°04'0 0.0
2017-Nov-17 03:59N 19°09' W 096°04'0 0.0
2017-Nov-17 03:29N 19°09' W 096°04'0 0.0
2017-Nov-17 02:59N 19°09' W 096°04'0 0.0
2017-Nov-17 02:29N 19°09' W 096°04'0 0.0
2017-Nov-17 01:59N 19°09' W 096°04'0 0.0
2017-Nov-17 01:29N 19°09' W 096°04'0 0.0
2017-Nov-17 00:59N 19°09' W 096°04'0 0.0
2017-Nov-17 00:29N 19°09' W 096°04'0 0.0
2017-Nov-16 21:59N 19°09' W 096°04'0 0.0
2017-Nov-16 18:53N 19°09' W 096°04'0 0.0
2017-Nov-16 18:23N 19°09' W 096°04'0 0.0
2017-Nov-16 17:59N 19°09' W 096°04'0 0.0
2017-Nov-16 17:29N 19°09' W 096°04'0 0.0
2017-Nov-16 16:59N 19°09' W 096°04'0 0.0
2017-Nov-16 16:29N 19°09' W 096°04'0 0.0
2017-Nov-16 15:59N 19°09' W 096°04'0 0.0
2017-Nov-16 15:23N 19°09' W 096°04'0 0.0
2017-Nov-16 14:59N 19°09' W 096°04'0 0.0
2017-Nov-16 14:29N 19°09' W 096°04'0 0.0
2017-Nov-16 13:59N 19°09' W 096°04'0 0.0
2017-Nov-16 13:29N 19°09' W 096°04'0 0.1
2017-Nov-16 12:59N 19°09' W 096°04'0 0.0
2017-Nov-16 12:29N 19°09' W 096°04'0 0.0
2017-Nov-16 11:59N 19°09' W 096°04'0 0.0
2017-Nov-16 11:29N 19°09' W 096°04'0 0.0
2017-Nov-16 10:59N 19°09' W 096°04'0 0.0
2017-Nov-16 10:29N 19°09' W 096°04'0 0.0
2017-Nov-16 09:59N 19°09' W 096°04'0 0.0
2017-Nov-16 09:29N 19°09' W 096°04'0 0.0
2017-Nov-16 08:53N 19°09' W 096°04'0 0.0
2017-Nov-16 08:29N 19°09' W 096°04'0 0.0
2017-Nov-16 07:59N 19°09' W 096°04'0 0.0
2017-Nov-16 07:17N 19°09' W 096°04'0 0.0
2017-Nov-16 06:59N 19°09' W 096°04'0 0.1
2017-Nov-16 06:29N 19°09' W 096°04'0 0.0
2017-Nov-16 05:59N 19°09' W 096°04'0 0.0
2017-Nov-16 05:29N 19°09' W 096°04'0 0.0
2017-Nov-16 04:59N 19°09' W 096°04'0 0.0
2017-Nov-16 04:29N 19°09' W 096°04'0 0.0
2017-Nov-16 03:59N 19°09' W 096°04'0 0.0
2017-Nov-16 03:29N 19°09' W 096°04'0 0.0
2017-Nov-16 02:59N 19°09' W 096°04'0 0.0
2017-Nov-16 02:29N 19°09' W 096°04'0 0.0
2017-Nov-16 01:59N 19°09' W 096°04'0 0.0
2017-Nov-16 01:29N 19°09' W 096°04'0 0.0
2017-Nov-16 00:59N 19°09' W 096°04'0 0.0
2017-Nov-16 00:29N 19°09' W 096°04'0 0.0
2017-Nov-15 23:53N 19°09' W 096°04'0 0.0
2017-Nov-15 23:29N 19°09' W 096°04'0 0.0
2017-Nov-15 22:59N 19°09' W 096°04'0 0.0
2017-Nov-15 22:29N 19°09' W 096°04'0 0.0
2017-Nov-15 21:59N 19°09' W 096°04'0 0.0
2017-Nov-15 21:29N 19°09' W 096°04'0 0.0
2017-Nov-15 20:59N 19°09' W 096°04'0 0.0
2017-Nov-15 20:29N 19°09' W 096°04'0 0.0
2017-Nov-15 19:59N 19°09' W 096°04'0 0.0
2017-Nov-15 19:29N 19°09' W 096°04'0 0.0
2017-Nov-15 18:53N 19°09' W 096°04'0 0.0
2017-Nov-15 18:29N 19°09' W 096°04'0 0.0
2017-Nov-15 17:59N 19°09' W 096°04'0 0.0
2017-Nov-15 17:29N 19°09' W 096°04'0 0.0
2017-Nov-15 16:59N 19°09' W 096°04'0 0.1
2017-Nov-15 16:29N 19°09' W 096°04'0 0.0
2017-Nov-15 15:53N 19°09' W 096°04'0 0.0
2017-Nov-15 15:29N 19°09' W 096°04'0 0.0
2017-Nov-15 14:59N 19°09' W 096°04'0 0.0
2017-Nov-15 14:29N 19°09' W 096°04'0 0.1
2017-Nov-15 13:59N 19°09' W 096°04'0 0.0
2017-Nov-15 13:29N 19°09' W 096°04'0 0.0
2017-Nov-15 12:59N 19°09' W 096°04'0 0.0
2017-Nov-15 12:29N 19°09' W 096°04'0 0.1
2017-Nov-15 11:53N 19°09' W 096°04'0 0.1
2017-Nov-15 11:29N 19°09' W 096°04'0 0.0
2017-Nov-15 10:59N 19°09' W 096°04'0 0.0
2017-Nov-15 10:29N 19°09' W 096°04'0 0.0
2017-Nov-15 09:53N 19°09' W 096°04'0 0.0
2017-Nov-15 09:11N 19°09' W 096°04'0 0.0
2017-Nov-15 08:59N 19°09' W 096°04'0 0.0
2017-Nov-15 08:23N 19°09' W 096°04'0 0.0
2017-Nov-15 07:59N 19°09' W 096°04'0 0.1
2017-Nov-15 07:29N 19°09' W 096°04'0 0.1
2017-Nov-15 06:59N 19°09' W 096°04'0 0.1
2017-Nov-15 06:29N 19°09' W 096°04'0 0.1
2017-Nov-15 05:59N 19°09' W 096°04'0 0.1
2017-Nov-15 05:29N 19°09' W 096°04'0 0.0
2017-Nov-15 04:59N 19°09' W 096°04'0 0.0
2017-Nov-15 04:23N 19°09' W 096°04'0 0.0
2017-Nov-15 03:59N 19°09' W 096°04'0 0.0
2017-Nov-15 03:29N 19°09' W 096°04'0 0.0
2017-Nov-15 02:59N 19°09' W 096°04'0 0.0
2017-Nov-15 02:29N 19°09' W 096°04'0 0.0
2017-Nov-15 01:59N 19°09' W 096°04'0 0.0
2017-Nov-15 01:23N 19°09' W 096°04'0 0.1
2017-Nov-15 00:59N 19°09' W 096°04'0 0.1
2017-Nov-15 00:29N 19°09' W 096°04'0 0.0
2017-Nov-14 23:53N 19°09' W 096°04'0 0.0
2017-Nov-14 23:29N 19°09' W 096°04'0 0.0
2017-Nov-14 22:59N 19°09' W 096°04'0 0.0
2017-Nov-14 22:29N 19°09' W 096°04'0 0.0
2017-Nov-14 21:59N 19°09' W 096°04'0 0.0
2017-Nov-14 21:29N 19°09' W 096°04'0 0.1
2017-Nov-14 20:53N 19°09' W 096°04'0 0.1
2017-Nov-14 20:29N 19°09' W 096°04'0 0.0
2017-Nov-14 19:59N 19°09' W 096°04'0 0.0
2017-Nov-14 19:29N 19°09' W 096°04'0 0.0
2017-Nov-14 18:59N 19°09' W 096°04'0 0.0
2017-Nov-14 18:29N 19°09' W 096°04'0 0.0
2017-Nov-14 17:59N 19°09' W 096°04'0 0.0
2017-Nov-14 17:29N 19°09' W 096°04'0 0.1
2017-Nov-14 16:59N 19°09' W 096°04'0 0.1
2017-Nov-14 16:29N 19°09' W 096°04'0 0.0
2017-Nov-14 15:59N 19°09' W 096°04'0 0.0
2017-Nov-14 15:29N 19°09' W 096°04'0 0.0
2017-Nov-14 14:59N 19°09' W 096°04'0 0.0
2017-Nov-14 14:23N 19°09' W 096°04'0 0.0
2017-Nov-14 13:53N 19°09' W 096°04'0 0.0
2017-Nov-14 13:29N 19°09' W 096°04'0 0.1
2017-Nov-14 12:59N 19°09' W 096°04'0 0.0
2017-Nov-14 12:29N 19°09' W 096°04'0 0.0
2017-Nov-14 11:59N 19°09' W 096°04'0 0.0
2017-Nov-14 11:29N 19°09' W 096°04'0 0.0
2017-Nov-14 10:59N 19°09' W 096°04'0 0.1
2017-Nov-14 10:29N 19°09' W 096°04'0 0.0
2017-Nov-14 09:59N 19°09' W 096°04'0 0.0
2017-Nov-14 09:29N 19°09' W 096°04'0 0.0
2017-Nov-14 08:59N 19°09' W 096°04'0 0.0
2017-Nov-14 08:29N 19°09' W 096°04'0 0.0
2017-Nov-14 07:59N 19°09' W 096°04'0 0.0
2017-Nov-14 07:29N 19°09' W 096°04'0 0.1
2017-Nov-14 06:59N 19°09' W 096°04'0 0.0
2017-Nov-14 06:29N 19°09' W 096°04'0 0.0
2017-Nov-14 05:59N 19°09' W 096°04'0 0.0
2017-Nov-14 05:29N 19°09' W 096°04'0 0.0
2017-Nov-14 04:59N 19°09' W 096°04'0 0.0
2017-Nov-14 04:29N 19°09' W 096°04'0 0.0
2017-Nov-14 03:59N 19°09' W 096°04'0 0.0
2017-Nov-14 03:29N 19°09' W 096°04'0 0.0
2017-Nov-14 02:59N 19°09' W 096°04'0 0.1
2017-Nov-14 02:29N 19°09' W 096°04'0 0.0
2017-Nov-14 01:59N 19°09' W 096°04'0 0.0
2017-Nov-14 01:23N 19°09' W 096°04'0 0.0
2017-Nov-14 00:59N 19°09' W 096°04'0 0.0
2017-Nov-14 00:29N 19°09' W 096°04'0 0.1
2017-Nov-13 23:59N 19°09' W 096°04'0 0.0
2017-Nov-13 23:23N 19°09' W 096°04'0 0.0
2017-Nov-13 22:59N 19°09' W 096°04'0 0.1
2017-Nov-13 22:29N 19°09' W 096°04'0 0.0
2017-Nov-13 21:59N 19°09' W 096°04'0 0.0
2017-Nov-13 01:54N 19°09' W 096°04'0 0.0
2017-Nov-13 01:30N 19°09' W 096°04'0 0.0
2017-Nov-13 01:00N 19°09' W 096°04'0 0.1
2017-Nov-13 00:30N 19°09' W 096°04'0 0.0
2017-Nov-13 00:00N 19°09' W 096°04'0 0.0
2017-Nov-12 23:24N 19°09' W 096°04'0 0.0
2017-Nov-12 23:00N 19°09' W 096°04'0 0.0
2017-Nov-12 22:30N 19°09' W 096°04'0 0.0
2017-Nov-12 22:00N 19°09' W 096°04'0 0.0
2017-Nov-12 21:30N 19°09' W 096°04'0 0.0
2017-Nov-12 21:00N 19°09' W 096°04'0 0.0
2017-Nov-12 20:24N 19°09' W 096°04'0 0.0
2017-Nov-12 20:00N 19°09' W 096°04'0 0.0
2017-Nov-12 19:30N 19°09' W 096°04'0 0.0
2017-Nov-12 19:00N 19°09' W 096°04'0 0.0
2017-Nov-12 18:30N 19°09' W 096°04'0 0.0
2017-Nov-12 18:00N 19°09' W 096°04'0 0.0
2017-Nov-12 17:30N 19°09' W 096°04'0 0.0
2017-Nov-12 17:00N 19°09' W 096°04'0 0.0
2017-Nov-12 16:30N 19°09' W 096°04'0 0.0
2017-Nov-12 16:00N 19°09' W 096°04'0 0.0
2017-Nov-12 15:30N 19°09' W 096°04'0 0.0
2017-Nov-12 14:48N 19°09' W 096°04'0 0.0
2017-Nov-12 14:30N 19°09' W 096°04'0 0.0
2017-Nov-12 13:48N 19°09' W 096°04'0 0.0
2017-Nov-12 13:24N 19°09' W 096°04'0 0.0
2017-Nov-12 13:00N 19°09' W 096°04'0 0.0
2017-Nov-12 12:30N 19°09' W 096°04'0 0.0
2017-Nov-12 12:00N 19°09' W 096°04'0 0.0
2017-Nov-12 11:24N 19°09' W 096°04'0 0.0
2017-Nov-12 10:54N 19°09' W 096°04'0 0.0
2017-Nov-12 10:30N 19°09' W 096°04'0 0.0
2017-Nov-12 09:54N 19°09' W 096°04'0 0.0
2017-Nov-12 09:24N 19°09' W 096°04'0 0.0
2017-Nov-12 09:00N 19°09' W 096°04'0 0.0
2017-Nov-12 08:30N 19°09' W 096°04'0 0.0
2017-Nov-12 08:00N 19°09' W 096°04'0 0.0
2017-Nov-12 07:30N 19°09' W 096°04'0 0.0
2017-Nov-12 07:00N 19°09' W 096°04'0 0.0
2017-Nov-12 06:30N 19°09' W 096°04'0 0.0
2017-Nov-12 06:00N 19°09' W 096°04'0 0.0
2017-Nov-12 05:30N 19°09' W 096°04'0 0.0
2017-Nov-12 05:00N 19°09' W 096°04'0 0.0
2017-Nov-12 04:24N 19°09' W 096°04'0 0.0
2017-Nov-12 04:00N 19°09' W 096°04'0 0.0
2017-Nov-12 03:24N 19°09' W 096°04'0 0.0
2017-Nov-12 03:00N 19°09' W 096°04'0 0.0
2017-Nov-12 02:30N 19°09' W 096°04'0 0.0
2017-Nov-12 02:00N 19°09' W 096°04'0 0.0
2017-Nov-12 01:30N 19°09' W 096°04'0 0.0
2017-Nov-12 01:00N 19°09' W 096°04'0 0.0
2017-Nov-12 00:30N 19°09' W 096°04'0 0.0
2017-Nov-12 00:00N 19°09' W 096°04'0 0.0
2017-Nov-11 23:30N 19°09' W 096°04'0 0.0
2017-Nov-11 23:00N 19°09' W 096°04'0 0.0
2017-Nov-11 22:30N 19°09' W 096°04'0 0.0
2017-Nov-11 22:00N 19°09' W 096°04'0 0.0
2017-Nov-11 21:30N 19°09' W 096°04'0 0.0
2017-Nov-11 20:54N 19°09' W 096°04'0 0.1
2017-Nov-11 20:30N 19°09' W 096°04'0 0.0
2017-Nov-11 19:55N 19°09' W 096°04'0 0.0
2017-Nov-11 19:30N 19°09' W 096°04'0 0.0
2017-Nov-11 19:00N 19°09' W 096°04'0 0.1
2017-Nov-11 18:30N 19°09' W 096°04'0 0.0
2017-Nov-11 18:00N 19°09' W 096°04'0 0.0
2017-Nov-11 17:30N 19°09' W 096°04'2 3.3
2017-Nov-11 17:00N 19°09' W 096°02'5 9.3
2017-Nov-11 16:30N 19°12' W 095°58'612.1
2017-Nov-11 16:00N 19°18' W 095°57'713.7
2017-Nov-11 15:30N 19°25' W 095°55'713.9
2017-Nov-11 15:00N 19°32' W 095°55'713.9
2017-Nov-11 14:29N 19°39' W 095°55'6 0.8
2017-Nov-11 06:46N 19°33' W 095°56'1 3.7
2017-Nov-11 06:30N 19°32' W 095°56'2 3.8
2017-Nov-11 06:00N 19°30' W 095°56'2 3.9
2017-Nov-11 05:30N 19°28' W 095°56'2 3.9
2017-Nov-11 05:00N 19°26' W 095°56'2 3.7
2017-Nov-11 04:30N 19°24' W 095°56'2 3.8
2017-Nov-11 04:01N 19°22' W 095°55'2 3.9
2017-Nov-11 03:30N 19°20' W 095°55'2 3.6
2017-Nov-11 03:00N 19°18' W 095°55'2 3.4
2017-Nov-11 02:30N 19°17' W 095°54'2 3.5
2017-Nov-11 02:00N 19°16' W 095°52'2 3.3
2017-Nov-11 01:30N 19°15' W 095°53'2 3.4
2017-Nov-11 01:00N 19°14' W 095°54'1 2.1
2017-Nov-11 00:30N 19°14' W 095°55'1 2.3
2017-Nov-11 00:00N 19°15' W 095°56'1 2.2
2017-Nov-10 23:30N 19°16' W 095°56'1 2.2
2017-Nov-10 23:00N 19°17' W 095°57'1 2.2
2017-Nov-10 22:30N 19°18' W 095°57'1 2.4
2017-Nov-10 22:00N 19°17' W 095°57'2 3.3
2017-Nov-10 21:30N 19°16' W 095°57'0 0.8
2017-Nov-10 21:00N 19°16' W 095°58'1 2.3
2017-Nov-10 20:30N 19°15' W 095°57'2 4.6
2017-Nov-10 20:00N 19°15' W 095°54'2 4.8
2017-Nov-10 19:30N 19°15' W 095°52'2 4.8
2017-Nov-10 19:00N 19°14' W 095°49'1 2.2
2017-Nov-10 18:30N 19°15' W 095°48'2 3.2
2017-Nov-10 18:00N 19°17' W 095°49'2 3.8
2017-Nov-10 17:30N 19°18' W 095°49'2 3.4
2017-Nov-10 17:00N 19°20' W 095°50'2 3.9
2017-Nov-10 16:30N 19°22' W 095°50'1 2.1
2017-Nov-10 16:00N 19°23' W 095°50'1 2.8
2017-Nov-10 15:30N 19°24' W 095°50'3 5.4
2017-Nov-10 15:00N 19°27' W 095°51'5 7.6
2017-Nov-10 14:18N 19°32' W 095°51'2 7.6
2017-Nov-10 14:00N 19°35' W 095°51'4 7.5
2017-Nov-10 13:30N 19°38' W 095°51'4 1.5
2017-Nov-10 10:53N 19°35' W 095°53'1 2.7
2017-Nov-10 10:25N 19°34' W 095°53'1 2.7
2017-Nov-10 10:00N 19°33' W 095°54'2 3.2
2017-Nov-10 09:30N 19°31' W 095°54'1 2.9
2017-Nov-10 09:00N 19°30' W 095°55'2 3.1
2017-Nov-10 08:30N 19°29' W 095°55'2 3.2
2017-Nov-10 08:01N 19°27' W 095°56'2 3.0
2017-Nov-10 07:30N 19°25' W 095°56'1 2.9
2017-Nov-10 07:00N 19°24' W 095°57'2 3.8
2017-Nov-10 06:30N 19°22' W 095°57'2 4.4
2017-Nov-10 06:00N 19°20' W 095°57'2 3.4
2017-Nov-10 05:31N 19°18' W 095°57'1 2.3
2017-Nov-10 05:01N 19°19' W 095°56'1 2.4
2017-Nov-10 04:31N 19°18' W 095°55'3 5.6
2017-Nov-10 04:00N 19°16' W 095°57'3 5.8
2017-Nov-10 03:30N 19°13' W 095°58'3 6.6
2017-Nov-10 03:00N 19°11' W 096°01'2 4.3
2017-Nov-10 02:30N 19°09' W 096°02'1 2.2
2017-Nov-10 01:55N 19°09' W 096°04'0 0.8
2017-Nov-10 01:25N 19°09' W 096°04'0 0.2
2017-Nov-10 00:55N 19°09' W 096°04'  
Track history (hours):
 
Tides and Currents Weather Stations Pressure Air Temp Water Temp Dewpoint Dewpoint Depression Visibility Wind Speed Wind Dir Waves Ship Positions

Cnp Paita

Last reported at 2017-Nov-20 00:30 UTC. Time now 2017-Nov-23 01:46 UTC.
Position N 19°37' W 095°56'.

Length 184 m; draft 7.8 m.

Type: Cargo ship. MMSI: 760001110.

Date/timePositionNaut miles runAvg speedWind from/ knotsBaromVisibWave heightAir tempDewpointWater temp
2017-Nov-20 00:30N 19°37' W 095°56'0 0.8
2017-Nov-20 00:00N 19°37' W 095°56'0 1.0
2017-Nov-19 23:30N 19°36' W 095°56'1 1.9
2017-Nov-19 22:56N 19°35' W 095°56'1 2.5
2017-Nov-19 22:30N 19°34' W 095°56'4 3.4
2017-Nov-19 21:21N 19°30' W 095°57'2 4.4
2017-Nov-19 21:00N 19°29' W 095°58'2 3.8
2017-Nov-19 20:30N 19°27' W 095°58'2 3.9
2017-Nov-19 20:00N 19°25' W 095°58'2 4.3
2017-Nov-19 19:30N 19°23' W 095°58'2 4.8
2017-Nov-19 19:00N 19°20' W 095°59'3 5.6
2017-Nov-19 18:30N 19°18' W 095°58'3 6.2
2017-Nov-19 18:00N 19°15' W 095°58'3 6.7
2017-Nov-19 17:30N 19°12' W 096°00'4 7.0
2017-Nov-19 17:00N 19°10' W 096°03'1 2.2
2017-Nov-19 16:29N 19°09' W 096°04'0 0.0
2017-Nov-19 15:59N 19°09' W 096°04'0 0.0
2017-Nov-19 15:29N 19°09' W 096°04'0 0.0
2017-Nov-19 14:53N 19°09' W 096°04'0 0.0
2017-Nov-19 14:29N 19°09' W 096°04'0 0.0
2017-Nov-19 13:35N 19°09' W 096°04'0 0.1
2017-Nov-19 13:29N 19°09' W 096°04'0 0.0
2017-Nov-19 12:53N 19°09' W 096°04'0 0.0
2017-Nov-19 12:29N 19°09' W 096°04'0 0.0
2017-Nov-19 11:59N 19°09' W 096°04'0 0.0
2017-Nov-19 11:23N 19°09' W 096°04'0 0.1
2017-Nov-19 10:59N 19°09' W 096°04'0 0.1
2017-Nov-19 10:29N 19°09' W 096°04'0 0.0
2017-Nov-19 09:53N 19°09' W 096°04'0 0.1
2017-Nov-19 09:29N 19°09' W 096°04'0 0.0
2017-Nov-19 08:59N 19°09' W 096°04'0 0.0
2017-Nov-19 08:29N 19°09' W 096°04'0 0.0
2017-Nov-19 07:59N 19°09' W 096°04'0 0.0
2017-Nov-19 07:29N 19°09' W 096°04'0 0.0
2017-Nov-19 06:59N 19°09' W 096°04'0 0.0
2017-Nov-19 06:23N 19°09' W 096°04'0 0.0
2017-Nov-19 05:59N 19°09' W 096°04'0 0.0
2017-Nov-19 05:23N 19°09' W 096°04'0 0.0
2017-Nov-19 04:59N 19°09' W 096°04'0 0.0
2017-Nov-19 04:29N 19°09' W 096°04'0 0.0
2017-Nov-19 03:53N 19°09' W 096°04'0 0.0
2017-Nov-19 03:23N 19°09' W 096°04'0 0.0
2017-Nov-19 02:41N 19°09' W 096°04'0 0.0
2017-Nov-19 02:23N 19°09' W 096°04'0 0.0
2017-Nov-19 01:11N 19°09' W 096°04'0 0.0
2017-Nov-19 00:53N 19°09' W 096°04'0 0.0
2017-Nov-19 00:29N 19°09' W 096°04'0 0.0
2017-Nov-18 23:59N 19°09' W 096°04'0 0.0
2017-Nov-18 23:29N 19°09' W 096°04'0 0.0
2017-Nov-18 22:59N 19°09' W 096°04'0 0.0
2017-Nov-18 22:17N 19°09' W 096°04'0 0.0
2017-Nov-18 21:59N 19°09' W 096°04'0 0.0
2017-Nov-18 21:29N 19°09' W 096°04'0 0.0
2017-Nov-18 20:59N 19°09' W 096°04'0 0.0
2017-Nov-18 20:29N 19°09' W 096°04'0 0.0
2017-Nov-18 19:35N 19°09' W 096°04'0 0.1
2017-Nov-18 19:29N 19°09' W 096°04'0 0.1
2017-Nov-18 18:53N 19°09' W 096°04'0 0.0
2017-Nov-18 18:29N 19°09' W 096°04'0 0.0
2017-Nov-18 17:59N 19°09' W 096°04'0 0.0
2017-Nov-18 17:23N 19°09' W 096°04'0 0.0
2017-Nov-18 16:59N 19°09' W 096°04'0 0.0
2017-Nov-18 16:23N 19°09' W 096°04'0 0.0
2017-Nov-18 15:53N 19°09' W 096°04'0 0.0
2017-Nov-18 15:29N 19°09' W 096°04'0 0.0
2017-Nov-18 14:47N 19°09' W 096°04'0 0.0
2017-Nov-18 14:29N 19°09' W 096°04'0 0.0
2017-Nov-18 13:59N 19°09' W 096°04'0 0.0
2017-Nov-18 13:29N 19°09' W 096°04'0 0.1
2017-Nov-18 12:59N 19°09' W 096°04'0 0.1
2017-Nov-18 12:23N 19°09' W 096°04'0 0.0
2017-Nov-18 11:59N 19°09' W 096°04'0 0.0
2017-Nov-18 11:29N 19°09' W 096°04'0 0.0
2017-Nov-18 10:59N 19°09' W 096°04'0 0.0
2017-Nov-18 10:23N 19°09' W 096°04'0 0.0
2017-Nov-18 09:53N 19°09' W 096°04'0 0.2
2017-Nov-18 09:23N 19°09' W 096°04'0 0.2
2017-Nov-18 08:59N 19°09' W 096°04'0 0.0
2017-Nov-18 08:29N 19°09' W 096°04'0 0.0
2017-Nov-18 07:59N 19°09' W 096°04'0 0.0
2017-Nov-18 07:29N 19°09' W 096°04'0 0.1
2017-Nov-18 06:59N 19°09' W 096°04'0 0.0
2017-Nov-18 06:29N 19°09' W 096°04'0 0.0
2017-Nov-18 05:59N 19°09' W 096°04'0 0.0
2017-Nov-18 05:29N 19°09' W 096°04'0 0.0
2017-Nov-18 04:59N 19°09' W 096°04'0 0.0
2017-Nov-18 04:29N 19°09' W 096°04'0 0.0
2017-Nov-18 03:53N 19°09' W 096°04'0 0.0
2017-Nov-18 03:29N 19°09' W 096°04'0 0.0
2017-Nov-18 02:53N 19°09' W 096°04'0 0.0
2017-Nov-18 02:29N 19°09' W 096°04'0 0.0
2017-Nov-18 01:59N 19°09' W 096°04'0 0.0
2017-Nov-18 01:29N 19°09' W 096°04'0 0.0
2017-Nov-18 00:47N 19°09' W 096°04'0 0.0
2017-Nov-18 00:29N 19°09' W 096°04'0 0.0
2017-Nov-17 23:53N 19°09' W 096°04'0 0.0
2017-Nov-17 23:29N 19°09' W 096°04'0 0.0
2017-Nov-17 22:59N 19°09' W 096°04'0 0.0
2017-Nov-17 22:29N 19°09' W 096°04'0 0.0
2017-Nov-17 21:53N 19°09' W 096°04'0 0.1
2017-Nov-17 21:29N 19°09' W 096°04'0 0.1
2017-Nov-17 20:53N 19°09' W 096°04'0 0.0
2017-Nov-17 20:29N 19°09' W 096°04'0 0.0
2017-Nov-17 19:53N 19°09' W 096°04'0 0.0
2017-Nov-17 19:29N 19°09' W 096°04'0 0.0
2017-Nov-17 18:53N 19°09' W 096°04'0 0.0
2017-Nov-17 18:29N 19°09' W 096°04'0 0.0
2017-Nov-17 17:59N 19°09' W 096°04'0 0.0
2017-Nov-17 17:29N 19°09' W 096°04'0 0.0
2017-Nov-17 16:59N 19°09' W 096°04'0 0.0
2017-Nov-17 16:29N 19°09' W 096°04'0 0.0
2017-Nov-17 15:59N 19°09' W 096°04'0 0.0
2017-Nov-17 15:29N 19°09' W 096°04'0 0.0
2017-Nov-17 14:59N 19°09' W 096°04'0 0.0
2017-Nov-17 14:29N 19°09' W 096°04'0 0.0
2017-Nov-17 13:59N 19°09' W 096°04'0 0.1
2017-Nov-17 13:29N 19°09' W 096°04'0 0.0
2017-Nov-17 12:41N 19°09' W 096°04'0 0.0
2017-Nov-17 12:29N 19°09' W 096°04'0 0.2
2017-Nov-17 11:59N 19°09' W 096°04'0 0.0
2017-Nov-17 11:23N 19°09' W 096°04'0 0.0
2017-Nov-17 10:59N 19°09' W 096°04'0 0.0
2017-Nov-17 10:17N 19°09' W 096°04'0 0.3
2017-Nov-17 09:59N 19°09' W 096°04'0 0.0
2017-Nov-17 09:23N 19°09' W 096°04'0 0.0
2017-Nov-17 08:47N 19°09' W 096°04'0 0.1
2017-Nov-17 08:29N 19°09' W 096°04'0 0.0
2017-Nov-17 07:59N 19°09' W 096°04'0 0.0
2017-Nov-17 07:29N 19°09' W 096°04'0 0.1
2017-Nov-17 06:59N 19°09' W 096°04'0 0.0
2017-Nov-17 06:29N 19°09' W 096°04'0 0.0
2017-Nov-17 05:53N 19°09' W 096°04'0 0.0
2017-Nov-17 05:29N 19°09' W 096°04'0 0.0
2017-Nov-17 04:59N 19°09' W 096°04'0 0.0
2017-Nov-17 04:29N 19°09' W 096°04'0 0.0
2017-Nov-17 03:59N 19°09' W 096°04'0 0.0
2017-Nov-17 03:29N 19°09' W 096°04'0 0.0
2017-Nov-17 02:59N 19°09' W 096°04'0 0.0
2017-Nov-17 02:29N 19°09' W 096°04'0 0.0
2017-Nov-17 01:59N 19°09' W 096°04'0 0.0
2017-Nov-17 01:29N 19°09' W 096°04'0 0.0
2017-Nov-17 00:59N 19°09' W 096°04'0 0.0
2017-Nov-17 00:29N 19°09' W 096°04'0 0.0
2017-Nov-16 21:59N 19°09' W 096°04'0 0.0
2017-Nov-16 18:53N 19°09' W 096°04'0 0.0
2017-Nov-16 18:23N 19°09' W 096°04'0 0.0
2017-Nov-16 17:59N 19°09' W 096°04'0 0.0
2017-Nov-16 17:29N 19°09' W 096°04'0 0.0
2017-Nov-16 16:59N 19°09' W 096°04'0 0.0
2017-Nov-16 16:29N 19°09' W 096°04'0 0.0
2017-Nov-16 15:59N 19°09' W 096°04'0 0.0
2017-Nov-16 15:23N 19°09' W 096°04'0 0.0
2017-Nov-16 14:59N 19°09' W 096°04'0 0.0
2017-Nov-16 14:29N 19°09' W 096°04'0 0.0
2017-Nov-16 13:59N 19°09' W 096°04'0 0.0
2017-Nov-16 13:29N 19°09' W 096°04'0 0.1
2017-Nov-16 12:59N 19°09' W 096°04'0 0.0
2017-Nov-16 12:29N 19°09' W 096°04'0 0.0
2017-Nov-16 11:59N 19°09' W 096°04'0 0.0
2017-Nov-16 11:29N 19°09' W 096°04'0 0.0
2017-Nov-16 10:59N 19°09' W 096°04'0 0.0
2017-Nov-16 10:29N 19°09' W 096°04'0 0.0
2017-Nov-16 09:59N 19°09' W 096°04'0 0.0
2017-Nov-16 09:29N 19°09' W 096°04'0 0.0
2017-Nov-16 08:53N 19°09' W 096°04'0 0.0
2017-Nov-16 08:29N 19°09' W 096°04'0 0.0
2017-Nov-16 07:59N 19°09' W 096°04'0 0.0
2017-Nov-16 07:17N 19°09' W 096°04'0 0.0
2017-Nov-16 06:59N 19°09' W 096°04'0 0.1
2017-Nov-16 06:29N 19°09' W 096°04'0 0.0
2017-Nov-16 05:59N 19°09' W 096°04'0 0.0
2017-Nov-16 05:29N 19°09' W 096°04'0 0.0
2017-Nov-16 04:59N 19°09' W 096°04'0 0.0
2017-Nov-16 04:29N 19°09' W 096°04'0 0.0
2017-Nov-16 03:59N 19°09' W 096°04'0 0.0
2017-Nov-16 03:29N 19°09' W 096°04'0 0.0
2017-Nov-16 02:59N 19°09' W 096°04'0 0.0
2017-Nov-16 02:29N 19°09' W 096°04'0 0.0
2017-Nov-16 01:59N 19°09' W 096°04'0 0.0
2017-Nov-16 01:29N 19°09' W 096°04'0 0.0
2017-Nov-16 00:59N 19°09' W 096°04'0 0.0
2017-Nov-16 00:29N 19°09' W 096°04'0 0.0
2017-Nov-15 23:53N 19°09' W 096°04'0 0.0
2017-Nov-15 23:29N 19°09' W 096°04'0 0.0
2017-Nov-15 22:59N 19°09' W 096°04'0 0.0
2017-Nov-15 22:29N 19°09' W 096°04'0 0.0
2017-Nov-15 21:59N 19°09' W 096°04'0 0.0
2017-Nov-15 21:29N 19°09' W 096°04'0 0.0
2017-Nov-15 20:59N 19°09' W 096°04'0 0.0
2017-Nov-15 20:29N 19°09' W 096°04'0 0.0
2017-Nov-15 19:59N 19°09' W 096°04'0 0.0
2017-Nov-15 19:29N 19°09' W 096°04'0 0.0
2017-Nov-15 18:53N 19°09' W 096°04'0 0.0
2017-Nov-15 18:29N 19°09' W 096°04'0 0.0
2017-Nov-15 17:59N 19°09' W 096°04'0 0.0
2017-Nov-15 17:29N 19°09' W 096°04'0 0.0
2017-Nov-15 16:59N 19°09' W 096°04'0 0.1
2017-Nov-15 16:29N 19°09' W 096°04'0 0.0
2017-Nov-15 15:53N 19°09' W 096°04'0 0.0
2017-Nov-15 15:29N 19°09' W 096°04'0 0.0
2017-Nov-15 14:59N 19°09' W 096°04'0 0.0
2017-Nov-15 14:29N 19°09' W 096°04'0 0.1
2017-Nov-15 13:59N 19°09' W 096°04'0 0.0
2017-Nov-15 13:29N 19°09' W 096°04'0 0.0
2017-Nov-15 12:59N 19°09' W 096°04'0 0.0
2017-Nov-15 12:29N 19°09' W 096°04'0 0.1
2017-Nov-15 11:53N 19°09' W 096°04'0 0.1
2017-Nov-15 11:29N 19°09' W 096°04'0 0.0
2017-Nov-15 10:59N 19°09' W 096°04'0 0.0
2017-Nov-15 10:29N 19°09' W 096°04'0 0.0
2017-Nov-15 09:53N 19°09' W 096°04'0 0.0
2017-Nov-15 09:11N 19°09' W 096°04'0 0.0
2017-Nov-15 08:59N 19°09' W 096°04'0 0.0
2017-Nov-15 08:23N 19°09' W 096°04'0 0.0
2017-Nov-15 07:59N 19°09' W 096°04'0 0.1
2017-Nov-15 07:29N 19°09' W 096°04'0 0.1
2017-Nov-15 06:59N 19°09' W 096°04'0 0.1
2017-Nov-15 06:29N 19°09' W 096°04'0 0.1
2017-Nov-15 05:59N 19°09' W 096°04'0 0.1
2017-Nov-15 05:29N 19°09' W 096°04'0 0.0
2017-Nov-15 04:59N 19°09' W 096°04'0 0.0
2017-Nov-15 04:23N 19°09' W 096°04'0 0.0
2017-Nov-15 03:59N 19°09' W 096°04'0 0.0
2017-Nov-15 03:29N 19°09' W 096°04'0 0.0
2017-Nov-15 02:59N 19°09' W 096°04'0 0.0
2017-Nov-15 02:29N 19°09' W 096°04'0 0.0
2017-Nov-15 01:59N 19°09' W 096°04'0 0.0
2017-Nov-15 01:23N 19°09' W 096°04'0 0.1
2017-Nov-15 00:59N 19°09' W 096°04'0 0.1
2017-Nov-15 00:29N 19°09' W 096°04'0 0.0
2017-Nov-14 23:53N 19°09' W 096°04'0 0.0
2017-Nov-14 23:29N 19°09' W 096°04'0 0.0
2017-Nov-14 22:59N 19°09' W 096°04'0 0.0
2017-Nov-14 22:29N 19°09' W 096°04'0 0.0
2017-Nov-14 21:59N 19°09' W 096°04'0 0.0
2017-Nov-14 21:29N 19°09' W 096°04'0 0.1
2017-Nov-14 20:53N 19°09' W 096°04'0 0.1
2017-Nov-14 20:29N 19°09' W 096°04'0 0.0
2017-Nov-14 19:59N 19°09' W 096°04'0 0.0
2017-Nov-14 19:29N 19°09' W 096°04'0 0.0
2017-Nov-14 18:59N 19°09' W 096°04'0 0.0
2017-Nov-14 18:29N 19°09' W 096°04'0 0.0
2017-Nov-14 17:59N 19°09' W 096°04'0 0.0
2017-Nov-14 17:29N 19°09' W 096°04'0 0.1
2017-Nov-14 16:59N 19°09' W 096°04'0 0.1
2017-Nov-14 16:29N 19°09' W 096°04'0 0.0
2017-Nov-14 15:59N 19°09' W 096°04'0 0.0
2017-Nov-14 15:29N 19°09' W 096°04'0 0.0
2017-Nov-14 14:59N 19°09' W 096°04'0 0.0
2017-Nov-14 14:23N 19°09' W 096°04'0 0.0
2017-Nov-14 13:53N 19°09' W 096°04'0 0.0
2017-Nov-14 13:29N 19°09' W 096°04'0 0.1
2017-Nov-14 12:59N 19°09' W 096°04'0 0.0
2017-Nov-14 12:29N 19°09' W 096°04'0 0.0
2017-Nov-14 11:59N 19°09' W 096°04'0 0.0
2017-Nov-14 11:29N 19°09' W 096°04'0 0.0
2017-Nov-14 10:59N 19°09' W 096°04'0 0.1
2017-Nov-14 10:29N 19°09' W 096°04'0 0.0
2017-Nov-14 09:59N 19°09' W 096°04'0 0.0
2017-Nov-14 09:29N 19°09' W 096°04'0 0.0
2017-Nov-14 08:59N 19°09' W 096°04'0 0.0
2017-Nov-14 08:29N 19°09' W 096°04'0 0.0
2017-Nov-14 07:59N 19°09' W 096°04'0 0.0
2017-Nov-14 07:29N 19°09' W 096°04'0 0.1
2017-Nov-14 06:59N 19°09' W 096°04'0 0.0
2017-Nov-14 06:29N 19°09' W 096°04'0 0.0
2017-Nov-14 05:59N 19°09' W 096°04'0 0.0
2017-Nov-14 05:29N 19°09' W 096°04'0 0.0
2017-Nov-14 04:59N 19°09' W 096°04'0 0.0
2017-Nov-14 04:29N 19°09' W 096°04'0 0.0
2017-Nov-14 03:59N 19°09' W 096°04'0 0.0
2017-Nov-14 03:29N 19°09' W 096°04'0 0.0
2017-Nov-14 02:59N 19°09' W 096°04'0 0.1
2017-Nov-14 02:29N 19°09' W 096°04'0 0.0
2017-Nov-14 01:59N 19°09' W 096°04'0 0.0
2017-Nov-14 01:23N 19°09' W 096°04'0 0.0
2017-Nov-14 00:59N 19°09' W 096°04'0 0.0
2017-Nov-14 00:29N 19°09' W 096°04'0 0.1
2017-Nov-13 23:59N 19°09' W 096°04'0 0.0
2017-Nov-13 23:23N 19°09' W 096°04'0 0.0
2017-Nov-13 22:59N 19°09' W 096°04'0 0.1
2017-Nov-13 22:29N 19°09' W 096°04'0 0.0
2017-Nov-13 21:59N 19°09' W 096°04'0 0.0
2017-Nov-13 01:54N 19°09' W 096°04'0 0.0
2017-Nov-13 01:30N 19°09' W 096°04'0 0.0
2017-Nov-13 01:00N 19°09' W 096°04'0 0.1
2017-Nov-13 00:30N 19°09' W 096°04'0 0.0
2017-Nov-13 00:00N 19°09' W 096°04'0 0.0
2017-Nov-12 23:24N 19°09' W 096°04'0 0.0
2017-Nov-12 23:00N 19°09' W 096°04'0 0.0
2017-Nov-12 22:30N 19°09' W 096°04'0 0.0
2017-Nov-12 22:00N 19°09' W 096°04'0 0.0
2017-Nov-12 21:30N 19°09' W 096°04'0 0.0
2017-Nov-12 21:00N 19°09' W 096°04'0 0.0
2017-Nov-12 20:24N 19°09' W 096°04'0 0.0
2017-Nov-12 20:00N 19°09' W 096°04'0 0.0
2017-Nov-12 19:30N 19°09' W 096°04'0 0.0
2017-Nov-12 19:00N 19°09' W 096°04'0 0.0
2017-Nov-12 18:30N 19°09' W 096°04'0 0.0
2017-Nov-12 18:00N 19°09' W 096°04'0 0.0
2017-Nov-12 17:30N 19°09' W 096°04'0 0.0
2017-Nov-12 17:00N 19°09' W 096°04'0 0.0
2017-Nov-12 16:30N 19°09' W 096°04'0 0.0
2017-Nov-12 16:00N 19°09' W 096°04'0 0.0
2017-Nov-12 15:30N 19°09' W 096°04'0 0.0
2017-Nov-12 14:48N 19°09' W 096°04'0 0.0
2017-Nov-12 14:30N 19°09' W 096°04'0 0.0
2017-Nov-12 13:48N 19°09' W 096°04'0 0.0
2017-Nov-12 13:24N 19°09' W 096°04'0 0.0
2017-Nov-12 13:00N 19°09' W 096°04'0 0.0
2017-Nov-12 12:30N 19°09' W 096°04'0 0.0
2017-Nov-12 12:00N 19°09' W 096°04'0 0.0
2017-Nov-12 11:24N 19°09' W 096°04'0 0.0
2017-Nov-12 10:54N 19°09' W 096°04'0 0.0
2017-Nov-12 10:30N 19°09' W 096°04'0 0.0
2017-Nov-12 09:54N 19°09' W 096°04'0 0.0
2017-Nov-12 09:24N 19°09' W 096°04'0 0.0
2017-Nov-12 09:00N 19°09' W 096°04'0 0.0
2017-Nov-12 08:30N 19°09' W 096°04'0 0.0
2017-Nov-12 08:00N 19°09' W 096°04'0 0.0
2017-Nov-12 07:30N 19°09' W 096°04'0 0.0
2017-Nov-12 07:00N 19°09' W 096°04'0 0.0
2017-Nov-12 06:30N 19°09' W 096°04'0 0.0
2017-Nov-12 06:00N 19°09' W 096°04'0 0.0
2017-Nov-12 05:30N 19°09' W 096°04'0 0.0
2017-Nov-12 05:00N 19°09' W 096°04'0 0.0
2017-Nov-12 04:24N 19°09' W 096°04'0 0.0
2017-Nov-12 04:00N 19°09' W 096°04'0 0.0
2017-Nov-12 03:24N 19°09' W 096°04'0 0.0
2017-Nov-12 03:00N 19°09' W 096°04'0 0.0
2017-Nov-12 02:30N 19°09' W 096°04'0 0.0
2017-Nov-12 02:00N 19°09' W 096°04'0 0.0
2017-Nov-12 01:30N 19°09' W 096°04'0 0.0
2017-Nov-12 01:00N 19°09' W 096°04'0 0.0
2017-Nov-12 00:30N 19°09' W 096°04'0 0.0
2017-Nov-12 00:00N 19°09' W 096°04'0 0.0
2017-Nov-11 23:30N 19°09' W 096°04'0 0.0
2017-Nov-11 23:00N 19°09' W 096°04'0 0.0
2017-Nov-11 22:30N 19°09' W 096°04'0 0.0
2017-Nov-11 22:00N 19°09' W 096°04'0 0.0
2017-Nov-11 21:30N 19°09' W 096°04'0 0.0
2017-Nov-11 20:54N 19°09' W 096°04'0 0.1
2017-Nov-11 20:30N 19°09' W 096°04'0 0.0
2017-Nov-11 19:55N 19°09' W 096°04'0 0.0
2017-Nov-11 19:30N 19°09' W 096°04'0 0.0
2017-Nov-11 19:00N 19°09' W 096°04'0 0.1
2017-Nov-11 18:30N 19°09' W 096°04'0 0.0
2017-Nov-11 18:00N 19°09' W 096°04'0 0.0
2017-Nov-11 17:30N 19°09' W 096°04'2 3.3
2017-Nov-11 17:00N 19°09' W 096°02'5 9.3
2017-Nov-11 16:30N 19°12' W 095°58'612.1
2017-Nov-11 16:00N 19°18' W 095°57'713.7
2017-Nov-11 15:30N 19°25' W 095°55'713.9
2017-Nov-11 15:00N 19°32' W 095°55'713.9
2017-Nov-11 14:29N 19°39' W 095°55'6 0.8
2017-Nov-11 06:46N 19°33' W 095°56'1 3.7
2017-Nov-11 06:30N 19°32' W 095°56'2 3.8
2017-Nov-11 06:00N 19°30' W 095°56'2 3.9
2017-Nov-11 05:30N 19°28' W 095°56'2 3.9
2017-Nov-11 05:00N 19°26' W 095°56'2 3.7
2017-Nov-11 04:30N 19°24' W 095°56'2 3.8
2017-Nov-11 04:01N 19°22' W 095°55'2 3.9
2017-Nov-11 03:30N 19°20' W 095°55'2 3.6
2017-Nov-11 03:00N 19°18' W 095°55'2 3.4
2017-Nov-11 02:30N 19°17' W 095°54'2 3.5
2017-Nov-11 02:00N 19°16' W 095°52'2 3.3
2017-Nov-11 01:30N 19°15' W 095°53'2 3.4
2017-Nov-11 01:00N 19°14' W 095°54'1 2.1
2017-Nov-11 00:30N 19°14' W 095°55'1 2.3
2017-Nov-11 00:00N 19°15' W 095°56'1 2.2
2017-Nov-10 23:30N 19°16' W 095°56'1 2.2
2017-Nov-10 23:00N 19°17' W 095°57'1 2.2
2017-Nov-10 22:30N 19°18' W 095°57'1 2.4
2017-Nov-10 22:00N 19°17' W 095°57'2 3.3
2017-Nov-10 21:30N 19°16' W 095°57'0 0.8
2017-Nov-10 21:00N 19°16' W 095°58'1 2.3
2017-Nov-10 20:30N 19°15' W 095°57'2 4.6
2017-Nov-10 20:00N 19°15' W 095°54'2 4.8
2017-Nov-10 19:30N 19°15' W 095°52'2 4.8
2017-Nov-10 19:00N 19°14' W 095°49'1 2.2
2017-Nov-10 18:30N 19°15' W 095°48'2 3.2
2017-Nov-10 18:00N 19°17' W 095°49'2 3.8
2017-Nov-10 17:30N 19°18' W 095°49'2 3.4
2017-Nov-10 17:00N 19°20' W 095°50'2 3.9
2017-Nov-10 16:30N 19°22' W 095°50'1 2.1
2017-Nov-10 16:00N 19°23' W 095°50'1 2.8
2017-Nov-10 15:30N 19°24' W 095°50'3 5.4
2017-Nov-10 15:00N 19°27' W 095°51'5 7.6
2017-Nov-10 14:18N 19°32' W 095°51'2 7.6
2017-Nov-10 14:00N 19°35' W 095°51'4 7.5
2017-Nov-10 13:30N 19°38' W 095°51'4 1.5
2017-Nov-10 10:53N 19°35' W 095°53'1 2.7
2017-Nov-10 10:25N 19°34' W 095°53'1 2.7
2017-Nov-10 10:00N 19°33' W 095°54'2 3.2
2017-Nov-10 09:30N 19°31' W 095°54'1 2.9
2017-Nov-10 09:00N 19°30' W 095°55'2 3.1
2017-Nov-10 08:30N 19°29' W 095°55'2 3.2
2017-Nov-10 08:01N 19°27' W 095°56'2 3.0
2017-Nov-10 07:30N 19°25' W 095°56'1 2.9
2017-Nov-10 07:00N 19°24' W 095°57'2 3.8
2017-Nov-10 06:30N 19°22' W 095°57'2 4.4
2017-Nov-10 06:00N 19°20' W 095°57'2 3.4
2017-Nov-10 05:31N 19°18' W 095°57'1 2.3
2017-Nov-10 05:01N 19°19' W 095°56'1 2.4
2017-Nov-10 04:31N 19°18' W 095°55'3 5.6
2017-Nov-10 04:00N 19°16' W 095°57'3 5.8
2017-Nov-10 03:30N 19°13' W 095°58'3 6.6
2017-Nov-10 03:00N 19°11' W 096°01'2 4.3
2017-Nov-10 02:30N 19°09' W 096°02'1 2.2
2017-Nov-10 01:55N 19°09' W 096°04'0 0.8
2017-Nov-10 01:25N 19°09' W 096°04'0 0.2
2017-Nov-10 00:55N 19°09' W 096°04'  

Dump ship's entire track history